createdAt,value
2018-01-02T00:02:43.364Z,98960
2018-01-02T00:07:44.802Z,98984
2018-01-02T00:12:46.281Z,99004
2018-01-02T00:17:47.777Z,98999
2018-01-02T00:22:50.053Z,99005
2018-01-02T00:27:52.476Z,99029
2018-01-02T00:32:53.957Z,99043
2018-01-02T00:37:55.424Z,99043
2018-01-02T00:42:57.752Z,99066
2018-01-02T00:47:59.304Z,99081
2018-01-02T00:53:00.892Z,99092
2018-01-02T00:58:03.160Z,99099
2018-01-02T01:03:04.732Z,99105
2018-01-02T01:08:06.244Z,99119
2018-01-02T01:13:07.798Z,99138
2018-01-02T01:18:09.360Z,99147
2018-01-02T01:23:11.613Z,99156
2018-01-02T01:28:13.129Z,99181
2018-01-02T01:33:14.636Z,99188
2018-01-02T01:38:16.168Z,99206
2018-01-02T01:43:17.635Z,99221
2018-01-02T01:48:19.176Z,99230
2018-01-02T01:53:21.442Z,99245
2018-01-02T01:58:22.973Z,99260
2018-01-02T02:03:24.493Z,99264
2018-01-02T02:08:26.737Z,99279
2018-01-02T02:13:28.252Z,99277
2018-01-02T02:18:30.435Z,99284
2018-01-02T02:23:31.930Z,99288
2018-01-02T02:28:33.420Z,99288
2018-01-02T02:33:35.113Z,99313
2018-01-02T02:38:36.552Z,99313
2018-01-02T02:43:38.085Z,99329
2018-01-02T02:48:39.627Z,99324
2018-01-02T02:53:41.856Z,99329
2018-01-02T02:58:43.333Z,99329
2018-01-02T03:03:44.882Z,99336
2018-01-02T03:08:46.438Z,99330
2018-01-02T03:13:47.986Z,99345
2018-01-02T03:18:50.257Z,99347
2018-01-02T03:23:51.761Z,99351
2018-01-02T03:28:53.245Z,99357
2018-01-02T03:33:54.749Z,99361
2018-01-02T03:38:56.562Z,99367
2018-01-02T03:43:58.061Z,99367
2018-01-02T03:48:59.539Z,99359
2018-01-02T03:54:01.048Z,99380
2018-01-02T03:59:02.550Z,99383
2018-01-02T04:04:04.076Z,99388
2018-01-02T04:09:05.599Z,99396
2018-01-02T04:14:07.100Z,99396
2018-01-02T04:19:09.379Z,99400
2018-01-02T04:24:10.896Z,99417
2018-01-02T04:29:12.391Z,99414
2018-01-02T04:34:13.891Z,99424
2018-01-02T04:39:15.419Z,99423
2018-01-02T04:44:17.033Z,99427
2018-01-02T04:49:19.225Z,99423
2018-01-02T04:54:20.727Z,99412
2018-01-02T04:59:22.232Z,99421
2018-01-02T05:04:23.727Z,99428
2018-01-02T05:09:25.265Z,99438
2018-01-02T05:14:26.795Z,99450
2018-01-02T05:19:28.485Z,99450
2018-01-02T05:24:29.996Z,99456
2018-01-02T05:29:31.512Z,99465
2018-01-02T05:34:33.011Z,99466
2018-01-02T05:39:35.261Z,99466
2018-01-02T05:44:36.750Z,99474
2018-01-02T05:49:38.285Z,99474
2018-01-02T05:54:39.876Z,99495
2018-01-02T05:59:41.451Z,99502
2018-01-02T06:04:43.005Z,99501
2018-01-02T06:09:44.526Z,99510
2018-01-02T06:14:46.049Z,99514
2018-01-02T06:19:47.626Z,99528
2018-01-02T06:24:49.152Z,99523
2018-01-02T06:29:50.660Z,99534
2018-01-02T06:34:52.219Z,99551
2018-01-02T06:39:53.761Z,99561
2018-01-02T06:44:55.257Z,99564
2018-01-02T06:49:56.750Z,99572
2018-01-02T06:54:58.380Z,99585
2018-01-02T06:59:59.914Z,99596
2018-01-02T07:05:01.437Z,99612
2018-01-02T07:10:02.955Z,99609
2018-01-02T07:15:04.552Z,99618
2018-01-02T07:20:06.094Z,99631
2018-01-02T07:25:07.581Z,99640
2018-01-02T07:30:09.072Z,99645
2018-01-02T07:35:10.576Z,99660
2018-01-02T07:40:12.094Z,99673
2018-01-02T07:45:13.624Z,99670
2018-01-02T07:50:15.170Z,99693
2018-01-02T07:55:16.648Z,99710
2018-01-02T08:00:18.172Z,99721
2018-01-02T08:05:19.696Z,99725
2018-01-02T08:10:21.259Z,99733
2018-01-02T08:15:22.804Z,99750
2018-01-02T08:20:24.372Z,99754
2018-01-02T08:25:25.912Z,99769
2018-01-02T08:30:27.439Z,99794
2018-01-02T08:35:28.979Z,99819
2018-01-02T08:40:30.465Z,99824
2018-01-02T08:45:32.013Z,99854
2018-01-02T08:50:33.527Z,99862
2018-01-02T08:55:35.076Z,99885
2018-01-02T09:00:36.612Z,99896
2018-01-02T09:05:38.156Z,99904
2018-01-02T09:10:40.450Z,99915
2018-01-02T09:15:42.755Z,99922
2018-01-02T09:20:44.323Z,99938
2018-01-02T09:25:45.888Z,99946
2018-01-02T09:30:47.433Z,99949
2018-01-02T09:35:49.738Z,99951
2018-01-02T09:40:51.300Z,99964
2018-01-02T09:45:52.868Z,99963
2018-01-02T09:50:55.170Z,99959
2018-01-02T09:55:56.740Z,99971
2018-01-02T10:00:58.265Z,99976
2018-01-02T10:05:59.836Z,99978
2018-01-02T10:11:02.080Z,99977
2018-01-02T10:16:03.624Z,99976
2018-01-02T10:21:05.182Z,99990
2018-01-02T10:26:06.663Z,99997
2018-01-02T10:31:08.180Z,100000
2018-01-02T10:36:09.868Z,100009
2018-01-02T10:41:12.148Z,100017
2018-01-02T10:46:13.685Z,100013
2018-01-02T10:51:15.219Z,100010
2018-01-02T10:56:16.768Z,100013
2018-01-02T11:01:25.074Z,99999
2018-01-02T11:06:27.368Z,100002
2018-01-02T11:11:31.570Z,100008
2018-01-02T11:16:33.078Z,100011
2018-01-02T11:21:34.617Z,100000
2018-01-02T11:26:36.148Z,100020
2018-01-02T11:31:37.702Z,100015
2018-01-02T11:36:39.246Z,100022
2018-01-02T11:41:41.541Z,100025
2018-01-02T11:46:43.079Z,100034
2018-01-02T11:51:44.669Z,100045
2018-01-02T11:56:46.162Z,100045
2018-01-02T12:01:47.772Z,100061
2018-01-02T12:06:49.265Z,100060
2018-01-02T12:11:51.588Z,100068
2018-01-02T12:16:53.157Z,100076
2018-01-02T12:21:54.685Z,100076
2018-01-02T12:26:57.199Z,100070
2018-01-02T12:31:58.846Z,100068
2018-01-02T12:37:01.281Z,100058
2018-01-02T12:42:02.781Z,100064
2018-01-02T12:47:04.293Z,100053
2018-01-02T12:52:05.830Z,100046
2018-01-02T12:57:08.094Z,100038
2018-01-02T13:02:09.590Z,100031
2018-01-02T13:07:11.803Z,100039
2018-01-02T13:12:13.330Z,100047
2018-01-02T13:17:15.648Z,100043
2018-01-02T13:22:17.263Z,100043
2018-01-02T13:27:18.834Z,100042
2018-01-02T13:32:27.432Z,100041
2018-01-02T13:37:28.962Z,100048
2018-01-02T13:42:30.541Z,100052
2018-01-02T13:47:32.231Z,100050
2018-01-02T13:52:33.760Z,100049
2018-01-02T13:57:36.117Z,100046
2018-01-02T14:02:37.646Z,100059
2018-01-02T14:07:39.189Z,100062
2018-01-02T14:12:41.436Z,100063
2018-01-02T14:17:43.016Z,100067
2018-01-02T14:22:44.625Z,100054
2018-01-02T14:27:46.160Z,100056
2018-01-02T14:32:47.654Z,100069
2018-01-02T14:37:49.212Z,100074
2018-01-02T14:42:51.504Z,100061
2018-01-02T14:47:53.047Z,100063
2018-01-02T14:52:54.628Z,100066
2018-01-02T14:57:56.924Z,100065
2018-01-02T15:02:58.461Z,100070
2018-01-02T15:07:59.982Z,100066
2018-01-02T15:13:01.565Z,100056
2018-01-02T15:18:03.092Z,100046
2018-01-02T15:23:05.346Z,100045
2018-01-02T15:28:06.940Z,100040
2018-01-02T15:33:09.243Z,100022
2018-01-02T15:38:10.784Z,100004
2018-01-02T15:43:13.028Z,99990
2018-01-02T15:48:14.573Z,100022
2018-01-02T15:53:16.084Z,100029
2018-01-02T15:58:17.644Z,100026
2018-01-02T16:03:19.154Z,100033
2018-01-02T16:08:20.707Z,100037
2018-01-02T16:13:22.982Z,100015
2018-01-02T16:18:24.846Z,100025
2018-01-02T16:23:26.488Z,100046
2018-01-02T16:28:27.998Z,100038
2018-01-02T16:33:30.356Z,100043
2018-01-02T16:38:31.915Z,100040
2018-01-02T16:43:33.481Z,100027
2018-01-02T16:48:35.033Z,100039
2018-01-02T16:53:36.558Z,100031
2018-01-02T16:58:38.893Z,100037
2018-01-02T17:03:40.477Z,100031
2018-01-02T17:08:41.944Z,100025
2018-01-02T17:13:43.571Z,100027
2018-01-02T17:18:45.097Z,100026
2018-01-02T17:23:46.725Z,99999
2018-01-02T17:28:48.311Z,100006
2018-01-02T17:33:49.857Z,100006
2018-01-02T17:38:58.465Z,100001
2018-01-02T17:44:00.757Z,99991
2018-01-02T17:49:03.022Z,99976
2018-01-02T17:54:04.595Z,99972
2018-01-02T17:59:06.934Z,99967
2018-01-02T18:04:08.489Z,99936
2018-01-02T18:09:10.052Z,99925
2018-01-02T18:14:11.600Z,99917
2018-01-02T18:19:13.883Z,99910
2018-01-02T18:24:16.206Z,99906
2018-01-02T18:29:17.862Z,99891
2018-01-02T18:34:19.441Z,99870
2018-01-02T18:39:22.094Z,99860
2018-01-02T18:44:24.428Z,99855
2018-01-02T18:49:25.947Z,99846
2018-01-02T18:54:28.286Z,99847
2018-01-02T18:59:29.877Z,99839
2018-01-02T19:04:31.461Z,99846
2018-01-02T19:09:33.081Z,99847
2018-01-02T19:14:34.625Z,99853
2018-01-02T19:19:36.164Z,99841
2018-01-02T19:24:37.826Z,99830
2018-01-02T19:29:39.405Z,99846
2018-01-02T19:39:49.183Z,99822
2018-01-02T19:44:50.764Z,99811
2018-01-02T19:49:52.323Z,99822
2018-01-02T19:54:53.938Z,99801
2018-01-02T19:59:55.513Z,99796
2018-01-02T20:04:57.024Z,99787
2018-01-02T20:09:58.657Z,99783
2018-01-02T20:15:00.242Z,99777
2018-01-02T20:20:02.585Z,99770
2018-01-02T20:25:04.954Z,99759
2018-01-02T20:30:06.526Z,99738
2018-01-02T20:35:08.818Z,99740
2018-01-02T20:40:10.452Z,99730
2018-01-02T20:45:12.079Z,99703
2018-01-02T20:50:13.723Z,99713
2018-01-02T20:55:16.017Z,99695
2018-01-02T21:00:18.571Z,99673
2018-01-02T21:05:20.265Z,99664
2018-01-02T21:10:21.789Z,99655
2018-01-02T21:15:23.342Z,99635
2018-01-02T21:20:24.957Z,99644
2018-01-02T21:25:26.545Z,99631
2018-01-02T21:30:28.865Z,99622
2018-01-02T21:35:30.461Z,99607
2018-01-02T21:40:32.041Z,99597
2018-01-02T21:45:33.575Z,99596
2018-01-02T21:50:35.128Z,99593
2018-01-02T21:55:36.730Z,99563
2018-01-02T22:00:38.356Z,99540
2018-01-02T22:05:40.591Z,99533
2018-01-02T22:10:42.138Z,99537
2018-01-02T22:15:43.696Z,99515
2018-01-02T22:20:45.252Z,99508
2018-01-02T22:25:46.761Z,99504
2018-01-02T22:30:48.280Z,99493
2018-01-02T22:35:50.517Z,99471
2018-01-02T22:40:52.106Z,99452
2018-01-02T22:45:53.682Z,99442
2018-01-02T22:50:55.233Z,99428
2018-01-02T22:55:56.794Z,99413
2018-01-02T23:00:58.436Z,99395
2018-01-02T23:05:59.936Z,99391
2018-01-02T23:11:01.500Z,99370
2018-01-02T23:16:03.063Z,99349
2018-01-02T23:21:04.648Z,99343
2018-01-02T23:26:06.216Z,99325
2018-01-02T23:31:07.775Z,99309
2018-01-02T23:36:09.340Z,99294
2018-01-02T23:41:10.888Z,99277
2018-01-02T23:46:12.452Z,99267
2018-01-02T23:51:13.994Z,99238
2018-01-02T23:56:15.504Z,99235
